Terminal Aerodrome Forecast
Issued by NWS

Home | Current Version | Previous Version | Text Only | Print | Product List | Glossary On
Versions: 1 2 3 4 5 6 7 8 9 10 11 12 13 14
747
FTUS45 KTFX 251123
TAFLWT
TAF
KLWT 251123Z 2512/2612 VRB06KT P6SM SKC
     FM251800 35006KT P6SM SCT090
     FM260200 VRB06KT P6SM VCTS SCT070CB BKN100
     FM260500 06007KT P6SM SCT120=

USA.gov is the U.S. government's official web portal to all federal, state and local government web resources and services.